createdAt,value
2022-12-12T00:02:57.623Z,9.48
2022-12-12T00:07:13.997Z,9.82
2022-12-12T00:11:30.403Z,10.18
2022-12-12T00:15:46.591Z,9.50
2022-12-12T00:20:03.756Z,9.45
2022-12-12T00:24:20.006Z,8.98
2022-12-12T00:28:36.119Z,8.57
2022-12-12T00:32:52.362Z,9.30
2022-12-12T00:37:08.480Z,9.50
2022-12-12T00:41:25.034Z,9.95
2022-12-12T00:45:41.239Z,9.43
2022-12-12T00:49:57.413Z,8.75
2022-12-12T00:54:13.574Z,9.85
2022-12-12T00:58:30.349Z,9.77
2022-12-12T01:02:46.875Z,10.93
2022-12-12T01:07:03.069Z,9.55
2022-12-12T01:11:19.833Z,9.77
2022-12-12T01:15:35.968Z,10.15
2022-12-12T01:19:52.285Z,10.40
2022-12-12T01:24:08.750Z,10.50
2022-12-12T01:28:24.778Z,10.90
2022-12-12T01:32:41.016Z,9.38
2022-12-12T01:36:57.179Z,8.82
2022-12-12T01:41:14.594Z,7.90
2022-12-12T01:45:58.762Z,8.32
2022-12-12T01:50:14.949Z,9.52
2022-12-12T01:54:39.938Z,10.27
2022-12-12T01:58:56.402Z,9.88
2022-12-12T02:03:12.621Z,9.10
2022-12-12T02:07:28.972Z,8.52
2022-12-12T02:11:47.627Z,9.90
2022-12-12T02:16:52.192Z,9.60
2022-12-12T02:21:27.008Z,9.35
2022-12-12T02:26:16.959Z,10.07
2022-12-12T02:30:54.610Z,10.50
2022-12-12T02:35:35.285Z,10.35
2022-12-12T02:40:07.849Z,9.52
2022-12-12T02:44:34.607Z,9.73
2022-12-12T02:49:04.564Z,10.18
2022-12-12T02:53:22.661Z,9.88
2022-12-12T02:57:41.842Z,10.68
2022-12-12T03:02:16.276Z,10.00
2022-12-12T03:07:10.762Z,9.85
2022-12-12T03:11:57.794Z,9.70
2022-12-12T03:16:35.021Z,10.07
2022-12-12T03:21:21.770Z,9.88
2022-12-12T03:25:58.625Z,11.00
2022-12-12T03:30:19.561Z,10.18
2022-12-12T03:39:02.152Z,9.95
2022-12-12T03:43:27.350Z,9.38
2022-12-12T03:48:01.248Z,9.55
2022-12-12T03:52:32.819Z,11.23
2022-12-12T03:57:10.243Z,9.65
2022-12-12T04:01:29.875Z,10.65
2022-12-12T04:06:27.055Z,10.15
2022-12-12T04:11:07.194Z,10.35
2022-12-12T04:15:29.412Z,10.65
2022-12-12T04:20:14.463Z,10.00
2022-12-12T04:24:45.830Z,10.15
2022-12-12T04:29:13.245Z,10.15
2022-12-12T04:33:35.404Z,10.20
2022-12-12T04:38:06.594Z,11.10
2022-12-12T04:42:25.369Z,10.70
2022-12-12T04:46:42.941Z,9.85
2022-12-12T04:51:01.567Z,10.50
2022-12-12T04:55:28.874Z,10.63
2022-12-12T04:59:45.608Z,11.35
2022-12-12T05:04:13.826Z,11.07
2022-12-12T05:08:36.862Z,9.27
2022-12-12T05:12:57.608Z,10.30
2022-12-12T05:17:18.997Z,11.12
2022-12-12T05:21:35.132Z,11.65
2022-12-12T05:25:51.310Z,10.13
2022-12-12T05:30:08.350Z,10.00
2022-12-12T05:34:24.844Z,11.02
2022-12-12T05:38:41.584Z,10.25
2022-12-12T05:42:57.823Z,12.18
2022-12-12T05:47:14.130Z,10.68
2022-12-12T05:51:30.571Z,12.20
2022-12-12T05:55:47.257Z,10.98
2022-12-12T06:00:05.152Z,10.93
2022-12-12T06:04:21.350Z,11.63
2022-12-12T06:08:37.782Z,10.23
2022-12-12T06:12:54.078Z,10.77
2022-12-12T06:17:10.306Z,10.15
2022-12-12T06:21:26.572Z,11.52
2022-12-12T06:25:42.756Z,10.77
2022-12-12T06:29:58.866Z,11.82
2022-12-12T06:34:15.368Z,11.50
2022-12-12T06:38:34.557Z,11.50
2022-12-12T06:42:50.795Z,10.63
2022-12-12T06:47:07.092Z,11.52
2022-12-12T06:51:36.562Z,12.05
2022-12-12T06:55:52.850Z,11.68
2022-12-12T07:00:11.813Z,12.13
2022-12-12T07:04:28.216Z,8.27
2022-12-12T07:08:44.887Z,18.70
2022-12-12T07:13:01.054Z,15.40
2022-12-12T07:17:17.280Z,10.32
2022-12-12T07:21:33.622Z,12.13
2022-12-12T07:25:49.815Z,11.45
2022-12-12T07:30:06.388Z,10.90
2022-12-12T07:34:22.716Z,10.80
2022-12-12T07:38:39.843Z,10.23
2022-12-12T07:42:56.041Z,12.02
2022-12-12T07:47:12.255Z,10.43
2022-12-12T07:51:28.558Z,10.45
2022-12-12T07:55:44.756Z,11.23
2022-12-12T08:00:01.471Z,11.93
2022-12-12T08:04:17.708Z,10.75
2022-12-12T08:08:34.169Z,10.38
2022-12-12T08:12:50.474Z,9.27
2022-12-12T08:17:06.747Z,11.15
2022-12-12T08:21:26.140Z,10.80
2022-12-12T08:25:43.312Z,9.45
2022-12-12T08:29:59.568Z,10.32
2022-12-12T08:34:15.888Z,10.85
2022-12-12T08:38:32.033Z,9.90
2022-12-12T08:42:48.194Z,9.75
2022-12-12T08:47:04.431Z,11.00
2022-12-12T08:51:22.771Z,10.00
2022-12-12T08:55:38.903Z,11.02
2022-12-12T08:59:55.416Z,9.02
2022-12-12T09:04:11.656Z,10.43
2022-12-12T09:08:28.003Z,8.10
2022-12-12T09:12:44.169Z,8.65
2022-12-12T09:17:00.328Z,9.63
2022-12-12T09:21:16.871Z,9.13
2022-12-12T09:25:33.130Z,8.05
2022-12-12T09:29:51.314Z,9.40
2022-12-12T09:34:09.950Z,9.50
2022-12-12T09:38:28.460Z,8.75
2022-12-12T09:42:49.563Z,9.05
2022-12-12T09:47:11.910Z,8.20
2022-12-12T09:51:28.160Z,9.60
2022-12-12T09:56:02.133Z,9.02
2022-12-12T10:00:18.714Z,8.68
2022-12-12T10:04:54.014Z,9.23
2022-12-12T10:09:42.240Z,10.27
2022-12-12T10:14:00.670Z,10.55
2022-12-12T10:18:28.843Z,8.68
2022-12-12T10:23:00.993Z,9.80
2022-12-12T10:27:19.177Z,8.18
2022-12-12T10:32:07.862Z,8.52
2022-12-12T10:36:42.649Z,7.62
2022-12-12T10:41:08.353Z,8.55
2022-12-12T10:45:30.718Z,8.23
2022-12-12T10:49:46.981Z,6.97
2022-12-12T10:54:06.243Z,8.60
2022-12-12T10:58:26.585Z,8.00
2022-12-12T11:02:46.813Z,8.05
2022-12-12T11:07:03.000Z,7.05
2022-12-12T11:11:21.474Z,6.72
2022-12-12T11:15:44.769Z,8.38
2022-12-12T11:24:23.257Z,8.00
2022-12-12T11:28:40.456Z,8.98
2022-12-12T11:32:59.086Z,8.30
2022-12-12T11:37:20.784Z,9.32
2022-12-12T11:42:01.828Z,8.13
2022-12-12T11:46:20.843Z,10.02
2022-12-12T11:50:44.573Z,9.40
2022-12-12T11:55:03.412Z,9.10
2022-12-12T11:59:28.425Z,9.95
2022-12-12T12:03:56.897Z,8.10
2022-12-12T12:08:59.747Z,8.32
2022-12-12T12:13:19.021Z,8.15
2022-12-12T12:18:03.034Z,9.75
2022-12-12T12:22:47.188Z,9.15
2022-12-12T12:27:23.220Z,7.82
2022-12-12T12:31:54.135Z,10.68
2022-12-12T12:36:17.669Z,8.60
2022-12-12T12:40:54.819Z,9.90
2022-12-12T12:45:45.938Z,9.23
2022-12-12T12:50:25.602Z,8.60
2022-12-12T12:54:46.004Z,7.80
2022-12-12T12:59:06.599Z,8.63
2022-12-12T13:03:28.234Z,9.07
2022-12-12T13:07:50.634Z,8.15
2022-12-12T13:12:38.932Z,7.47
2022-12-12T13:16:57.738Z,8.95
2022-12-12T13:21:13.974Z,9.02
2022-12-12T13:25:39.218Z,8.38
2022-12-12T13:30:15.415Z,9.02
2022-12-12T13:34:33.992Z,10.05
2022-12-12T13:38:53.172Z,9.73
2022-12-12T13:43:27.822Z,8.80
2022-12-12T13:47:55.515Z,8.88
2022-12-12T13:52:42.692Z,7.45
2022-12-12T13:56:58.773Z,8.98
2022-12-12T14:01:47.099Z,9.70
2022-12-12T14:06:11.415Z,6.40
2022-12-12T14:10:41.947Z,8.23
2022-12-12T14:15:07.340Z,9.25
2022-12-12T14:19:35.475Z,8.70
2022-12-12T14:23:55.239Z,9.18
2022-12-12T14:28:22.352Z,10.10
2022-12-12T14:32:51.485Z,10.10
2022-12-12T14:37:49.858Z,9.95
2022-12-12T14:42:08.323Z,8.95
2022-12-12T14:46:24.606Z,9.32
2022-12-12T14:50:44.473Z,7.80
2022-12-12T14:55:03.422Z,8.00
2022-12-12T14:59:27.355Z,9.18
2022-12-12T15:03:50.610Z,9.02
2022-12-12T15:08:18.825Z,8.45
2022-12-12T15:12:43.770Z,9.13
2022-12-12T15:17:10.046Z,9.07
2022-12-12T15:21:26.575Z,10.23
2022-12-12T15:26:05.092Z,9.60
2022-12-12T15:30:33.927Z,10.25
2022-12-12T15:35:13.154Z,9.48
2022-12-12T15:39:29.512Z,10.15
2022-12-12T15:43:49.963Z,9.85
2022-12-12T15:48:07.281Z,9.95
2022-12-12T15:52:28.195Z,8.70
2022-12-12T15:56:49.916Z,9.23
2022-12-12T16:01:07.915Z,8.65
2022-12-12T16:05:38.676Z,8.45
2022-12-12T16:10:28.147Z,8.90
2022-12-12T16:14:44.305Z,8.60
2022-12-12T16:19:00.899Z,8.75
2022-12-12T16:23:42.700Z,7.35
2022-12-12T16:28:25.314Z,6.93
2022-12-12T16:32:42.661Z,7.68
2022-12-12T16:36:58.863Z,7.15
2022-12-12T16:41:17.306Z,7.78
2022-12-12T16:45:35.509Z,7.85
2022-12-12T16:49:51.959Z,7.60
2022-12-12T16:54:20.151Z,7.50
2022-12-12T16:58:36.644Z,7.18
2022-12-12T17:02:52.870Z,7.87
2022-12-12T17:07:09.561Z,5.68
2022-12-12T17:11:28.000Z,7.50
2022-12-12T17:15:44.704Z,7.20
2022-12-12T17:20:01.098Z,7.90
2022-12-12T17:24:17.473Z,10.82
2022-12-12T17:28:34.486Z,6.40
2022-12-12T17:37:26.754Z,7.05
2022-12-12T17:41:43.411Z,7.25
2022-12-12T17:46:02.778Z,5.93
2022-12-12T17:50:20.618Z,8.50
2022-12-12T17:54:36.994Z,9.05
2022-12-12T17:58:54.949Z,7.90
2022-12-12T18:03:12.141Z,7.40
2022-12-12T18:07:28.491Z,8.10
2022-12-12T18:11:46.287Z,7.70
2022-12-12T18:16:03.102Z,7.43
2022-12-12T18:20:20.521Z,7.93
2022-12-12T18:24:39.344Z,9.13
2022-12-12T18:29:00.066Z,6.90
2022-12-12T18:33:16.969Z,7.87
2022-12-12T18:37:33.295Z,6.93
2022-12-12T18:41:49.630Z,8.15
2022-12-12T18:46:11.408Z,8.20
2022-12-12T18:50:27.731Z,9.55
2022-12-12T18:54:44.046Z,8.02
2022-12-12T18:59:01.185Z,8.55
2022-12-12T19:03:17.413Z,9.15
2022-12-12T19:07:33.662Z,8.85
2022-12-12T19:11:50.488Z,9.02
2022-12-12T19:16:32.837Z,9.38
2022-12-12T19:20:50.126Z,9.75
2022-12-12T19:25:06.779Z,10.05
2022-12-12T19:29:23.023Z,9.25
2022-12-12T19:33:43.862Z,8.02
2022-12-12T19:38:00.137Z,10.18
2022-12-12T19:42:16.470Z,7.05
2022-12-12T19:46:33.456Z,10.02
2022-12-12T19:50:49.872Z,10.60
2022-12-12T19:55:06.490Z,8.55
2022-12-12T19:59:22.826Z,9.52
2022-12-12T20:03:42.109Z,9.52
2022-12-12T20:07:58.382Z,11.20
2022-12-12T20:12:14.558Z,10.63
2022-12-12T20:16:31.162Z,10.10
2022-12-12T20:20:47.339Z,10.25
2022-12-12T20:25:03.612Z,11.27
2022-12-12T20:29:20.208Z,10.70
2022-12-12T20:33:38.593Z,9.98
2022-12-12T20:37:54.740Z,9.00
2022-12-12T20:42:11.366Z,10.30
2022-12-12T20:46:31.347Z,10.70
2022-12-12T20:50:48.250Z,10.02
2022-12-12T20:55:04.867Z,11.02
2022-12-12T20:59:21.084Z,11.18
2022-12-12T21:03:37.211Z,10.43
2022-12-12T21:07:53.475Z,10.60
2022-12-12T21:12:12.085Z,11.10
2022-12-12T21:16:31.391Z,10.65
2022-12-12T21:20:47.642Z,10.10
2022-12-12T21:25:03.867Z,11.35
2022-12-12T21:29:20.146Z,11.15
2022-12-12T21:33:36.732Z,12.20
2022-12-12T21:37:52.813Z,10.05
2022-12-12T21:42:11.364Z,11.63
2022-12-12T21:46:29.368Z,11.25
2022-12-12T21:50:45.614Z,11.60
2022-12-12T21:55:01.805Z,11.10
2022-12-12T21:59:18.282Z,12.05
2022-12-12T22:03:34.982Z,11.02
2022-12-12T22:07:51.201Z,11.50
2022-12-12T22:12:08.358Z,12.68
2022-12-12T22:16:24.710Z,12.27
2022-12-12T22:20:40.935Z,11.12
2022-12-12T22:24:57.094Z,11.12
2022-12-12T22:29:16.911Z,10.40
2022-12-12T22:33:33.231Z,11.88
2022-12-12T22:37:49.404Z,11.77
2022-12-12T22:42:05.734Z,11.75
2022-12-12T22:46:22.304Z,12.30
2022-12-12T22:50:38.612Z,11.95
2022-12-12T22:54:55.091Z,11.48
2022-12-12T22:59:13.535Z,11.95
2022-12-12T23:03:31.024Z,11.48
2022-12-12T23:07:47.379Z,12.27
2022-12-12T23:12:03.650Z,12.27
2022-12-12T23:16:21.775Z,11.73
2022-12-12T23:20:38.048Z,12.23
2022-12-12T23:24:54.311Z,10.93
2022-12-12T23:29:12.911Z,11.48
2022-12-12T23:33:29.224Z,12.57
2022-12-12T23:37:45.421Z,11.05
2022-12-12T23:42:01.662Z,11.52
2022-12-12T23:46:33.521Z,10.65
2022-12-12T23:50:49.771Z,10.93
2022-12-12T23:55:06.288Z,11.00
2022-12-12T23:59:22.560Z,10.23
